Canyonlands National Park, UT

4:36 PM MDT on July 25, 2016 (GMT -0600)
Moab | | Change Station

Elev 4239 ft 38.55 °N, 109.52 °W | Updated 7 minutes ago

Clear
Clear
104.3 °F
Feels Like 100 °F
N
5.0
Wind Variable Wind from NW
Gusts 5.0 mph

Today
High -- | Low -- °F
--% Chance of Precip.
Yesterday
High -- | Low -- °F
Precip. -- in
Pressure 29.78 in
Visibility 10.0 miles
Clouds Clear
Heat Index 100 °F
Dew Point 44 °F
Humidity 13%
Rainfall 0.00 in
Snow Depth Not available.
6:14 AM 8:34 PM
Waning Gibbous, 62% visible
METAR KCNY 252153Z AUTO VRB05KT 10SM CLR 39/03 A3001 RMK AO2 SLP085 T03940028
Pressure 29.78 in
Visibility 10.0 miles
Clouds Clear
Heat Index 100 °F
Dew Point 44 °F
Humidity 13%
Rainfall 0.00 in
Snow Depth Not available.
6:14 AM 8:34 PM
Waning Gibbous, 62% visible
METAR KCNY 252153Z AUTO VRB05KT 10SM CLR 39/03 A3001 RMK AO2 SLP085 T03940028

10-Day Weather Forecast

Almanac

Astronomy

Jul. 25, 2016 Rise Set
Actual Time
Civil Twilight
Nautical Twilight
Astronomical Twilight
Moon
Length of Visible Light
Length of Day
Tomorrow will be .
, % of the Moon is Illuminated

Today's Extremes

State Highs State Lows

Community

WunderPhotos

Upload Photos

1,927,433 photos uploaded!

WunderBlog® & News

Nearby

Air Quality

  Air Quality AQ Index Pollutant
Not available.

Snow Depth

Station Depth Elevation

Earthquake Activity

City Distance Mag. Time & Date
Minimum magnitude displayed is 2.5.

Coastal Water Temperatures

Place Temperature

Stations

Nearby Weather Stations

Station Location Temp. Windchill Dew Point Humidity Wind Precip. Elev Updated Type
                   

Watches & Warnings

There are currently no watches in effect.